Time;durP1;ratioP1;P1;durP2;ratioP2;P2;SDS_P1;SDS_P2;PMS_P1;PMS_P2;Temp;Humidity;BMP_temperature;BMP_pressure;BME280_temperature;BME280_humidity;BME280_pressure;Samples;Min_cycle;Max_cycle;Signal;HPM_P1;HPM_P2
2023/06/11 00:00:04;;;;;;;12.95;5.20;;;18.60;99.90;;;;;;5047103;28;20039;-76
2023/06/11 00:02:33;;;;;;;11.52;4.90;;;18.50;99.90;;;;;;5069675;28;20398;-76
2023/06/11 00:05:09;;;;;;;12.38;5.05;;;18.50;99.90;;;;;;5067935;28;20128;-77
2023/06/11 00:07:37;;;;;;;13.05;5.25;;;18.50;99.90;;;;;;5068305;28;20044;-76
2023/06/11 00:10:06;;;;;;;11.70;5.30;;;18.40;99.90;;;;;;5067726;28;20509;-76
2023/06/11 00:12:33;;;;;;;12.13;4.85;;;18.40;99.90;;;;;;5054029;28;20044;-76
2023/06/11 00:15:02;;;;;;;11.77;5.40;;;18.30;99.90;;;;;;5060675;28;20218;-77
2023/06/11 00:17:28;;;;;;;12.30;5.22;;;18.30;99.90;;;;;;5066805;28;20051;-76
2023/06/11 00:19:54;;;;;;;12.27;5.40;;;18.30;99.90;;;;;;5065115;28;20122;-76
2023/06/11 00:22:20;;;;;;;13.32;5.43;;;18.30;99.90;;;;;;5061553;28;20557;-76
2023/06/11 00:24:46;;;;;;;13.27;5.75;;;18.20;99.90;;;;;;5056715;28;20102;-76
2023/06/11 00:27:12;;;;;;;12.23;5.07;;;18.20;99.90;;;;;;5052311;28;20120;-76
2023/06/11 00:29:37;;;;;;;12.38;4.97;;;18.10;99.90;;;;;;5054349;28;20151;-76
2023/06/11 00:32:03;;;;;;;12.05;5.70;;;18.10;99.90;;;;;;5063649;28;20040;-77
2023/06/11 00:34:29;;;;;;;12.23;5.85;;;18.10;99.90;;;;;;5064860;28;20102;-76
2023/06/11 00:36:55;;;;;;;12.48;5.80;;;18.10;99.90;;;;;;5062163;28;20040;-76
2023/06/11 00:39:21;;;;;;;14.10;5.90;;;18.00;99.90;;;;;;5057137;28;20045;-76
2023/06/11 00:41:49;;;;;;;11.88;5.47;;;17.90;99.90;;;;;;5034302;28;20141;-76
2023/06/11 00:44:18;;;;;;;12.05;5.88;;;17.90;99.90;;;;;;5058584;28;20054;-76
2023/06/11 00:46:48;;;;;;;12.45;5.60;;;17.90;99.90;;;;;;5061144;28;20041;-77
2023/06/11 00:49:17;;;;;;;12.55;5.55;;;17.90;99.90;;;;;;5061487;28;20499;-77
2023/06/11 00:51:45;;;;;;;12.10;5.43;;;17.80;99.90;;;;;;5045896;28;20040;-77
2023/06/11 00:54:16;;;;;;;12.27;5.85;;;17.30;99.90;;;;;;5057078;28;20028;-77
2023/06/11 00:56:43;;;;;;;13.90;6.30;;;17.80;99.90;;;;;;5071008;28;20044;-77
2023/06/11 00:59:10;;;;;;;13.63;6.07;;;17.80;99.90;;;;;;5050947;28;20045;-77
2023/06/11 01:01:54;;;;;;;12.77;6.13;;;17.70;99.90;;;;;;5068435;28;20040;-77
2023/06/11 01:04:23;;;;;;;13.23;5.88;;;17.70;99.90;;;;;;5059023;28;20047;-77
2023/06/11 01:06:54;;;;;;;11.65;6.07;;;17.70;99.90;;;;;;5047146;28;20041;-77
2023/06/11 01:09:22;;;;;;;12.38;5.90;;;17.70;99.90;;;;;;5056528;28;20434;-77
2023/06/11 01:11:53;;;;;;;14.57;6.40;;;17.70;99.90;;;;;;5059522;28;20044;-77
2023/06/11 01:14:20;;;;;;;12.07;6.40;;;17.60;99.90;;;;;;5055711;28;20052;-77
2023/06/11 01:17:15;;;;;;;12.60;6.13;;;17.60;99.90;;;;;;5065910;28;20131;-77
2023/06/11 01:19:55;;;;;;;10.93;6.03;;;17.60;99.90;;;;;;5062405;28;20044;-77
2023/06/11 01:22:33;;;;;;;13.02;6.80;;;17.60;99.90;;;;;;5066445;28;20518;-77
2023/06/11 01:25:37;;;;;;;13.45;6.55;;;17.50;99.90;;;;;;5060484;28;20040;-77
2023/06/11 01:28:16;;;;;;;13.07;6.47;;;17.50;99.90;;;;;;5053907;28;20127;-77
2023/06/11 01:30:48;;;;;;;14.45;7.00;;;17.50;99.90;;;;;;5042390;28;20045;-77
2023/06/11 01:33:14;;;;;;;13.80;6.68;;;17.50;99.90;;;;;;5058974;28;20126;-77
2023/06/11 01:35:41;;;;;;;12.73;6.80;;;17.40;99.90;;;;;;5034243;28;20041;-76
2023/06/11 01:38:08;;;;;;;12.80;6.80;;;17.40;99.90;;;;;;5049921;28;20506;-76
2023/06/11 01:40:34;;;;;;;12.45;6.93;;;17.40;99.90;;;;;;5060720;28;20048;-76
2023/06/11 01:43:00;;;;;;;15.93;6.93;;;17.40;99.90;;;;;;5056586;28;20486;-76
2023/06/11 01:45:27;;;;;;;14.32;7.68;;;17.40;99.90;;;;;;5058945;28;20059;-76
2023/06/11 01:47:53;;;;;;;14.15;6.97;;;17.40;99.90;;;;;;5060497;28;20049;-76
2023/06/11 01:50:20;;;;;;;13.02;7.40;;;17.30;99.90;;;;;;5056712;28;20537;-76
2023/06/11 01:52:46;;;;;;;14.43;7.38;;;17.30;99.90;;;;;;5057467;28;20047;-76
2023/06/11 01:55:12;;;;;;;12.98;7.05;;;17.30;99.90;;;;;;5054333;28;20258;-76
2023/06/11 01:57:38;;;;;;;13.40;6.90;;;17.30;99.90;;;;;;5059912;28;20111;-76
2023/06/11 02:00:10;;;;;;;12.93;6.75;;;17.30;99.90;;;;;;5063519;28;20089;-76
2023/06/11 02:02:37;;;;;;;12.82;6.50;;;17.30;99.90;;;;;;5067246;28;20113;-77
2023/06/11 02:05:03;;;;;;;12.63;6.90;;;17.30;99.90;;;;;;5055364;28;20049;-77
2023/06/11 02:07:28;;;;;;;13.82;7.07;;;17.20;99.90;;;;;;5038730;28;20101;-77
2023/06/11 02:09:54;;;;;;;12.60;6.78;;;17.20;99.90;;;;;;5051116;28;20044;-77
2023/06/11 02:12:20;;;;;;;12.75;6.82;;;17.20;99.90;;;;;;5063224;28;20044;-77
2023/06/11 02:14:46;;;;;;;17.13;7.30;;;17.20;99.90;;;;;;5061458;28;20048;-77
2023/06/11 02:17:11;;;;;;;11.90;6.85;;;17.20;99.90;;;;;;5056399;28;20060;-77
2023/06/11 02:19:38;;;;;;;12.10;7.18;;;17.10;99.90;;;;;;5061474;28;20041;-77
2023/06/11 02:22:04;;;;;;;11.45;6.85;;;17.10;99.90;;;;;;5062652;28;20032;-76
2023/06/11 02:24:30;;;;;;;13.82;7.50;;;17.10;99.90;;;;;;5067112;28;20040;-76
2023/06/11 02:26:55;;;;;;;12.68;7.97;;;17.00;99.90;;;;;;5062912;28;20040;-76
2023/06/11 02:29:21;;;;;;;14.05;7.60;;;16.90;99.90;;;;;;5066751;28;20461;-76
2023/06/11 02:31:47;;;;;;;13.75;7.93;;;16.90;99.90;;;;;;5064301;28;20189;-76
2023/06/11 02:34:12;;;;;;;12.93;7.15;;;16.90;99.90;;;;;;5066147;28;20494;-76
2023/06/11 02:36:38;;;;;;;13.35;6.95;;;16.90;99.90;;;;;;5055947;28;20118;-76
2023/06/11 02:39:04;;;;;;;13.23;7.35;;;16.80;99.90;;;;;;5052234;28;20107;-76
2023/06/11 02:41:30;;;;;;;12.45;7.70;;;16.80;99.90;;;;;;5061453;28;20037;-76
2023/06/11 02:43:56;;;;;;;12.13;7.45;;;16.70;99.90;;;;;;5061727;28;20044;-76
2023/06/11 02:46:22;;;;;;;12.48;7.75;;;16.80;99.90;;;;;;5058263;28;20056;-77
2023/06/11 02:48:47;;;;;;;13.65;7.60;;;16.70;99.90;;;;;;5068136;28;20109;-77
2023/06/11 02:51:13;;;;;;;12.95;7.65;;;16.70;99.90;;;;;;5062799;28;20040;-77
2023/06/11 02:53:39;;;;;;;15.52;8.10;;;16.70;99.90;;;;;;5040940;28;20032;-77
2023/06/11 02:56:05;;;;;;;13.70;7.95;;;16.60;99.90;;;;;;5065843;28;20063;-77
2023/06/11 02:58:31;;;;;;;12.70;7.90;;;16.60;99.90;;;;;;5053668;28;20048;-77
2023/06/11 03:00:56;;;;;;;14.50;7.95;;;16.60;99.90;;;;;;5047486;28;20068;-77
2023/06/11 03:03:22;;;;;;;14.45;7.93;;;16.60;99.90;;;;;;5052800;28;20044;-77
2023/06/11 03:05:48;;;;;;;13.98;8.68;;;16.60;99.90;;;;;;5058730;28;20114;-77
2023/06/11 03:08:13;;;;;;;13.82;8.30;;;16.50;99.90;;;;;;5062087;28;20131;-77
2023/06/11 03:10:39;;;;;;;13.50;7.72;;;16.50;99.90;;;;;;5052539;28;20044;-77
2023/06/11 03:13:05;;;;;;;12.73;7.72;;;16.50;99.90;;;;;;5065149;28;20052;-77
2023/06/11 03:15:31;;;;;;;15.75;7.70;;;16.50;99.90;;;;;;5065798;28;20056;-76
2023/06/11 03:17:57;;;;;;;15.80;8.10;;;16.50;99.90;;;;;;5044528;28;20040;-76
2023/06/11 03:20:23;;;;;;;12.73;8.15;;;16.50;99.90;;;;;;5068196;28;20044;-76
2023/06/11 03:22:49;;;;;;;14.52;8.20;;;16.50;99.90;;;;;;5068362;28;20047;-77
2023/06/11 03:25:15;;;;;;;12.73;7.72;;;16.40;99.90;;;;;;5061931;28;20456;-77
2023/06/11 03:27:40;;;;;;;14.48;8.60;;;16.40;99.90;;;;;;5060116;28;20036;-77
2023/06/11 03:30:07;;;;;;;14.93;8.20;;;16.40;99.90;;;;;;5070141;28;20044;-77
2023/06/11 03:32:33;;;;;;;14.13;8.05;;;16.40;99.90;;;;;;5057196;28;20429;-77
2023/06/11 03:34:58;;;;;;;13.45;8.20;;;16.40;99.90;;;;;;5052784;28;20041;-77
2023/06/11 03:37:24;;;;;;;13.77;8.50;;;16.40;99.90;;;;;;5060845;28;20051;-77
2023/06/11 03:39:50;;;;;;;13.07;8.18;;;16.50;99.90;;;;;;5070638;28;20043;-77
2023/06/11 03:42:16;;;;;;;13.60;8.43;;;16.50;99.90;;;;;;5044670;28;20052;-77
2023/06/11 03:44:41;;;;;;;13.80;7.82;;;16.40;99.90;;;;;;5059743;28;20049;-76
2023/06/11 03:47:07;;;;;;;15.02;8.20;;;16.50;99.90;;;;;;5054532;28;20091;-76
2023/06/11 03:49:33;;;;;;;15.68;8.38;;;16.40;99.90;;;;;;5050837;28;20128;-76
2023/06/11 03:52:00;;;;;;;12.95;7.85;;;16.40;99.90;;;;;;5037939;28;20302;-77
2023/06/11 03:54:25;;;;;;;13.43;7.80;;;16.50;99.90;;;;;;5063593;28;20411;-77
2023/06/11 03:56:51;;;;;;;13.40;8.18;;;16.50;99.90;;;;;;5069221;28;20052;-77
2023/06/11 03:59:17;;;;;;;15.70;8.20;;;16.50;99.90;;;;;;5058443;28;20039;-77
2023/06/11 04:01:42;;;;;;;15.02;8.70;;;16.50;99.90;;;;;;5070214;28;20036;-77
2023/06/11 04:04:08;;;;;;;14.00;8.27;;;16.60;99.90;;;;;;5056717;28;20033;-77
2023/06/11 04:06:38;;;;;;;15.43;7.72;;;16.60;99.90;;;;;;5046417;28;20121;-77
2023/06/11 04:09:05;;;;;;;12.80;7.85;;;16.60;99.90;;;;;;5058528;28;20053;-77
2023/06/11 04:11:30;;;;;;;13.27;7.50;;;16.70;99.90;;;;;;5064570;28;20040;-76
2023/06/11 04:13:56;;;;;;;13.43;7.90;;;16.70;99.90;;;;;;5060845;28;20541;-76
2023/06/11 04:16:22;;;;;;;15.27;7.75;;;16.80;99.90;;;;;;5060843;28;20041;-77
2023/06/11 04:18:48;;;;;;;13.52;8.15;;;16.80;99.90;;;;;;5046508;28;20048;-77
2023/06/11 04:21:14;;;;;;;14.27;8.13;;;16.90;99.90;;;;;;5062877;28;20526;-77
2023/06/11 04:23:40;;;;;;;12.15;8.10;;;16.90;99.90;;;;;;5061217;28;20040;-77
2023/06/11 04:26:10;;;;;;;11.43;7.15;;;17.00;99.90;;;;;;5070581;28;20109;-77
2023/06/11 04:28:36;;;;;;;13.05;8.38;;;17.10;99.90;;;;;;5065035;28;20040;-77
2023/06/11 04:31:06;;;;;;;11.63;7.63;;;17.10;99.90;;;;;;5037321;28;20087;-77
2023/06/11 04:33:33;;;;;;;14.77;8.40;;;17.20;99.90;;;;;;5061053;28;20376;-77
2023/06/11 04:36:12;;;;;;;12.70;7.63;;;17.20;99.90;;;;;;5059577;28;20185;-77
2023/06/11 04:38:44;;;;;;;15.13;8.90;;;17.30;99.90;;;;;;5060108;28;20032;-77
2023/06/11 04:41:11;;;;;;;12.90;8.30;;;17.40;99.90;;;;;;5063294;28;20187;-77
2023/06/11 04:43:37;;;;;;;13.43;7.65;;;17.40;99.90;;;;;;5039182;28;20124;-77
2023/06/11 04:46:04;;;;;;;13.38;8.38;;;17.50;99.90;;;;;;5059451;28;20057;-77
2023/06/11 04:48:34;;;;;;;13.90;7.72;;;17.50;99.90;;;;;;5062520;28;20499;-77
2023/06/11 04:51:00;;;;;;;15.05;8.25;;;17.60;99.90;;;;;;5057881;28;20048;-77
2023/06/11 04:53:29;;;;;;;13.82;8.18;;;17.70;99.90;;;;;;5056128;28;20079;-77
2023/06/11 04:55:57;;;;;;;14.18;7.80;;;17.70;99.90;;;;;;5056784;28;20071;-77
2023/06/11 04:58:26;;;;;;;17.13;8.38;;;17.80;99.90;;;;;;5057978;28;20124;-77
2023/06/11 05:00:56;;;;;;;11.52;7.63;;;17.90;99.90;;;;;;5058135;28;20230;-77
2023/06/11 05:03:24;;;;;;;13.75;7.78;;;17.90;99.90;;;;;;5050374;28;20556;-77
2023/06/11 05:05:51;;;;;;;15.38;7.53;;;18.00;99.90;;;;;;5054594;28;20041;-77
2023/06/11 05:08:18;;;;;;;13.45;8.27;;;18.10;99.90;;;;;;5055501;28;20486;-77
2023/06/11 05:10:44;;;;;;;13.80;7.93;;;18.20;99.90;;;;;;5052867;28;20044;-77
2023/06/11 05:13:13;;;;;;;13.45;8.05;;;18.20;99.90;;;;;;5065579;28;20037;-77
2023/06/11 05:15:39;;;;;;;12.85;7.38;;;18.40;99.90;;;;;;5054027;28;20410;-77
2023/06/11 05:18:06;;;;;;;12.73;7.63;;;18.40;99.90;;;;;;5044388;28;20402;-77
2023/06/11 05:20:32;;;;;;;13.77;8.35;;;18.50;99.90;;;;;;5060728;28;20070;-77
2023/06/11 05:23:03;;;;;;;13.13;7.97;;;18.60;99.90;;;;;;5057585;28;20044;-77
2023/06/11 05:25:29;;;;;;;14.45;7.88;;;18.70;99.90;;;;;;5050663;28;20044;-77
2023/06/11 05:27:59;;;;;;;11.73;7.97;;;18.70;99.90;;;;;;5050695;28;20054;-77
2023/06/11 05:30:25;;;;;;;13.77;8.38;;;18.80;99.90;;;;;;5052749;28;20069;-77
2023/06/11 05:32:53;;;;;;;13.18;8.02;;;18.80;99.90;;;;;;5054966;28;20465;-77
2023/06/11 05:35:20;;;;;;;12.95;7.93;;;18.90;99.90;;;;;;5054139;28;20502;-77
2023/06/11 05:37:45;;;;;;;13.43;7.95;;;19.10;99.90;;;;;;5057692;28;20036;-77
2023/06/11 05:40:11;;;;;;;11.32;6.95;;;19.10;99.90;;;;;;5068955;28;20370;-77
2023/06/11 05:42:37;;;;;;;13.95;7.00;;;19.30;99.90;;;;;;5066305;28;20426;-77
2023/06/11 05:45:05;;;;;;;12.90;7.20;;;19.40;99.90;;;;;;5048703;28;20095;-77
2023/06/11 05:47:32;;;;;;;14.18;7.00;;;19.70;99.90;;;;;;5055618;28;20041;-77
2023/06/11 05:49:59;;;;;;;12.13;6.65;;;19.60;99.90;;;;;;5054007;28;20048;-77
2023/06/11 05:52:24;;;;;;;15.32;7.68;;;19.70;99.90;;;;;;5057913;28;21215;-77
2023/06/11 05:54:50;;;;;;;12.35;7.10;;;19.80;99.90;;;;;;5062594;28;20070;-77
2023/06/11 05:57:24;;;;;;;13.30;7.38;;;19.90;99.90;;;;;;5064228;28;20252;-77
2023/06/11 05:59:51;;;;;;;12.70;7.10;;;20.00;99.90;;;;;;5059548;28;20056;-77
2023/06/11 06:02:17;;;;;;;12.13;7.07;;;20.10;99.90;;;;;;5044488;28;20036;-77
2023/06/11 06:04:43;;;;;;;14.23;7.47;;;;;;;;;;5056982;28;20110;-77
2023/06/11 06:07:08;;;;;;;17.33;7.68;;;20.20;99.90;;;;;;5065660;28;20078;-77
2023/06/11 06:09:34;;;;;;;11.52;6.78;;;20.30;99.90;;;;;;5067752;28;20079;-77
2023/06/11 06:12:00;;;;;;;12.15;6.88;;;20.40;99.90;;;;;;5039155;28;20460;-77
2023/06/11 06:14:26;;;;;;;13.55;6.85;;;;;;;;;;5061063;28;20032;-77
2023/06/11 06:16:52;;;;;;;11.25;6.60;;;20.50;99.90;;;;;;5065336;28;20064;-77
2023/06/11 06:19:18;;;;;;;12.80;6.40;;;20.60;99.90;;;;;;5054031;28;20375;-77
2023/06/11 06:21:43;;;;;;;16.17;7.25;;;20.80;99.90;;;;;;5052841;28;20394;-77
2023/06/11 06:24:13;;;;;;;13.43;7.00;;;20.80;99.90;;;;;;5061928;28;20130;-77
2023/06/11 06:26:40;;;;;;;11.48;6.15;;;20.90;99.90;;;;;;5064163;28;20036;-77
2023/06/11 06:29:13;;;;;;;12.43;6.70;;;20.90;99.90;;;;;;5051593;28;20517;-77
2023/06/11 06:31:40;;;;;;;11.57;6.20;;;21.00;99.90;;;;;;5069644;28;20194;-77
2023/06/11 06:34:07;;;;;;;15.38;6.53;;;21.10;99.90;;;;;;5065951;28;20045;-77
2023/06/11 06:36:33;;;;;;;14.15;6.60;;;21.20;99.90;;;;;;5067676;28;20052;-77
2023/06/11 06:39:01;;;;;;;12.32;6.43;;;21.30;99.90;;;;;;5069236;28;20112;-77
2023/06/11 06:41:27;;;;;;;11.82;6.70;;;21.40;99.90;;;;;;5069360;28;20469;-77
2023/06/11 06:43:53;;;;;;;10.77;6.35;;;21.50;99.90;;;;;;5067522;28;20044;-77
2023/06/11 06:46:19;;;;;;;12.38;6.55;;;21.60;99.90;;;;;;5066058;28;20060;-77
2023/06/11 06:48:45;;;;;;;10.80;6.82;;;21.70;99.90;;;;;;5053857;28;20098;-77
2023/06/11 06:51:10;;;;;;;11.98;6.82;;;21.80;99.90;;;;;;5049476;28;20047;-77
2023/06/11 06:53:36;;;;;;;10.57;6.07;;;21.90;99.90;;;;;;5047637;28;20048;-77
2023/06/11 06:56:05;;;;;;;12.07;6.00;;;22.10;99.90;;;;;;5053816;28;20083;-77
2023/06/11 06:58:32;;;;;;;11.82;6.10;;;22.20;99.90;;;;;;5066667;28;20044;-77
2023/06/11 07:00:58;;;;;;;11.50;5.95;;;22.30;99.90;;;;;;5050249;28;20044;-77
2023/06/11 07:03:24;;;;;;;15.18;6.57;;;22.40;99.90;;;;;;5049587;28;20091;-77
2023/06/11 07:05:50;;;;;;;11.43;6.13;;;22.50;99.90;;;;;;5061407;28;20090;-77
2023/06/11 07:08:16;;;;;;;13.23;6.72;;;22.60;99.90;;;;;;5062352;28;20045;-77
2023/06/11 07:10:42;;;;;;;12.15;6.45;;;22.70;99.90;;;;;;5049250;28;20045;-77
2023/06/11 07:13:11;;;;;;;11.07;6.45;;;22.70;99.90;;;;;;5047598;28;20554;-77
2023/06/11 07:15:37;;;;;;;12.98;6.70;;;;;;;;;;5048633;28;20335;-77
2023/06/11 07:18:03;;;;;;;10.77;5.78;;;22.90;99.90;;;;;;5056068;28;20055;-77
2023/06/11 07:20:29;;;;;;;13.38;6.68;;;22.90;99.90;;;;;;5049383;28;20040;-77
2023/06/11 07:22:54;;;;;;;13.07;6.82;;;23.00;99.90;;;;;;5048958;28;20045;-77
2023/06/11 07:25:20;;;;;;;12.77;6.28;;;23.20;99.90;;;;;;5049791;28;20132;-77
2023/06/11 07:27:46;;;;;;;14.82;6.40;;;23.30;99.90;;;;;;5032804;28;20417;-77
2023/06/11 07:30:12;;;;;;;14.63;6.85;;;23.30;99.90;;;;;;5047549;28;20107;-77
2023/06/11 07:32:38;;;;;;;12.70;6.32;;;23.40;99.90;;;;;;5049234;28;20032;-77
2023/06/11 07:35:04;;;;;;;12.02;6.22;;;23.40;99.90;;;;;;5061075;28;20045;-78
2023/06/11 07:37:31;;;;;;;11.48;6.20;;;23.50;99.90;;;;;;5058741;28;20072;-79
2023/06/11 07:39:57;;;;;;;11.70;6.15;;;23.00;99.90;;;;;;5061640;28;20045;-77
2023/06/11 07:42:23;;;;;;;12.95;6.53;;;23.70;99.90;;;;;;5056242;28;20055;-77
2023/06/11 07:44:49;;;;;;;12.75;6.45;;;23.70;99.90;;;;;;5061443;28;20052;-75
2023/06/11 07:47:15;;;;;;;10.88;6.07;;;23.80;99.90;;;;;;5016235;28;20495;-76
2023/06/11 07:49:40;;;;;;;13.18;6.53;;;23.90;99.90;;;;;;5061337;28;20068;-76
2023/06/11 07:52:07;;;;;;;10.38;6.05;;;23.90;99.90;;;;;;5055727;28;20479;-75
2023/06/11 07:54:33;;;;;;;12.30;6.18;;;24.00;99.90;;;;;;5062945;28;20029;-76
2023/06/11 07:56:58;;;;;;;12.80;6.40;;;24.10;99.90;;;;;;5061161;28;20407;-76
2023/06/11 07:59:24;;;;;;;10.65;5.93;;;24.20;99.90;;;;;;5039108;28;20037;-75
2023/06/11 08:01:50;;;;;;;10.45;5.65;;;24.20;99.90;;;;;;5064039;28;20051;-75
2023/06/11 08:04:16;;;;;;;13.15;5.93;;;24.20;99.90;;;;;;5063129;28;20098;-75
2023/06/11 08:06:43;;;;;;;11.20;6.55;;;24.30;99.90;;;;;;5063570;28;20048;-75
2023/06/11 08:09:09;;;;;;;12.27;6.82;;;24.40;99.90;;;;;;5044729;28;20442;-76
2023/06/11 08:11:35;;;;;;;13.27;6.20;;;24.50;99.90;;;;;;5059667;28;20036;-75
2023/06/11 08:14:01;;;;;;;10.68;5.60;;;24.50;99.90;;;;;;5057982;28;20060;-75
2023/06/11 08:16:27;;;;;;;11.30;6.55;;;24.60;99.90;;;;;;5052294;28;20045;-76
2023/06/11 08:18:55;;;;;;;13.05;6.32;;;24.60;99.90;;;;;;5068683;28;20128;-75
2023/06/11 08:21:21;;;;;;;10.32;5.65;;;24.70;99.90;;;;;;5061506;28;20047;-76
2023/06/11 08:23:48;;;;;;;11.20;6.20;;;24.70;99.90;;;;;;5067497;28;20044;-76
2023/06/11 08:26:14;;;;;;;12.93;6.32;;;24.80;99.90;;;;;;5070434;28;20052;-76
2023/06/11 08:28:40;;;;;;;10.55;5.72;;;24.90;99.90;;;;;;5037162;28;20115;-76
2023/06/11 08:31:06;;;;;;;11.65;6.13;;;25.10;99.90;;;;;;5050331;28;20549;-76
2023/06/11 08:33:33;;;;;;;10.63;6.15;;;25.10;99.90;;;;;;5055022;28;20043;-76
2023/06/11 08:35:58;;;;;;;11.43;5.95;;;25.20;99.90;;;;;;5057946;28;20136;-76
2023/06/11 08:38:28;;;;;;;11.57;6.00;;;25.20;99.90;;;;;;5053105;28;20175;-76
2023/06/11 08:40:53;;;;;;;11.93;6.28;;;25.30;99.90;;;;;;5051265;28;20524;-76
2023/06/11 08:43:19;;;;;;;10.68;6.03;;;25.50;99.90;;;;;;5059386;28;20041;-76
2023/06/11 08:45:46;;;;;;;11.40;6.03;;;25.70;99.90;;;;;;5054920;28;20061;-76
2023/06/11 08:48:12;;;;;;;9.68;5.63;;;25.70;99.90;;;;;;5053788;28;20409;-77
2023/06/11 08:50:38;;;;;;;12.00;6.07;;;25.70;99.90;;;;;;5048317;28;20045;-76
2023/06/11 08:53:06;;;;;;;13.77;5.60;;;25.80;99.90;;;;;;5062771;28;20521;-76
2023/06/11 08:55:32;;;;;;;13.25;5.97;;;25.70;99.90;;;;;;5063529;28;20379;-77
2023/06/11 08:57:58;;;;;;;12.18;5.57;;;25.90;99.90;;;;;;5045784;28;20051;-77
2023/06/11 09:00:23;;;;;;;11.52;5.85;;;26.00;99.90;;;;;;5054500;28;20406;-77
2023/06/11 09:02:50;;;;;;;13.02;6.25;;;26.10;99.90;;;;;;5067372;28;20089;-77
2023/06/11 09:05:16;;;;;;;12.30;6.03;;;26.20;99.90;;;;;;5067947;28;20044;-76
2023/06/11 09:07:50;;;;;;;9.95;5.30;;;26.20;99.90;;;;;;5052344;28;20053;-76
2023/06/11 09:10:16;;;;;;;10.18;5.65;;;26.30;99.90;;;;;;5051800;28;20064;-77
2023/06/11 09:12:41;;;;;;;12.48;6.10;;;26.40;99.90;;;;;;5056708;28;20037;-77
2023/06/11 09:15:07;;;;;;;10.65;5.88;;;26.50;99.90;;;;;;5055300;28;20398;-76
2023/06/11 09:17:37;;;;;;;11.35;5.95;;;26.60;99.90;;;;;;5067331;28;20055;-76
2023/06/11 09:20:06;;;;;;;14.23;5.80;;;26.70;99.90;;;;;;5057294;28;20040;-76
2023/06/11 09:22:34;;;;;;;11.07;5.80;;;26.70;99.90;;;;;;5048401;28;20049;-76
2023/06/11 09:25:11;;;;;;;12.48;5.70;;;26.80;99.90;;;;;;5066925;28;20044;-76
2023/06/11 09:27:38;;;;;;;10.82;5.80;;;26.80;99.90;;;;;;5054985;28;20029;-76
2023/06/11 09:30:12;;;;;;;11.73;5.70;;;26.90;99.90;;;;;;5062724;28;20048;-77
2023/06/11 09:32:40;;;;;;;10.50;5.82;;;27.00;99.90;;;;;;5058269;28;20047;-77
2023/06/11 09:35:08;;;;;;;10.45;5.53;;;27.00;99.90;;;;;;5063802;28;20128;-76
2023/06/11 09:37:49;;;;;;;10.23;5.47;;;27.10;99.90;;;;;;5053859;28;20041;-76
2023/06/11 09:40:17;;;;;;;11.43;5.40;;;27.00;99.90;;;;;;5057917;28;20047;-75
2023/06/11 09:42:47;;;;;;;12.57;5.68;;;27.20;99.90;;;;;;5069834;28;20194;-76
2023/06/11 09:45:20;;;;;;;12.45;5.35;;;27.30;99.90;;;;;;5058198;28;20434;-76
2023/06/11 09:47:47;;;;;;;10.13;5.57;;;27.40;99.90;;;;;;5064349;28;20052;-77
2023/06/11 09:50:15;;;;;;;10.88;5.70;;;27.40;99.90;;;;;;5063402;28;20058;-77
2023/06/11 09:52:42;;;;;;;11.27;5.22;;;27.40;99.90;;;;;;5060208;28;20043;-76
2023/06/11 09:55:09;;;;;;;11.43;5.45;;;27.50;99.90;;;;;;5064253;28;20110;-76
2023/06/11 09:57:36;;;;;;;11.30;5.15;;;27.70;99.90;;;;;;5062207;28;20495;-76
2023/06/11 10:00:05;;;;;;;10.43;5.10;;;27.70;99.90;;;;;;5048198;28;20072;-77
2023/06/11 10:02:31;;;;;;;9.40;4.78;;;27.70;99.90;;;;;;5057889;28;20039;-76
2023/06/11 10:04:57;;;;;;;11.85;5.93;;;27.80;99.90;;;;;;5042182;28;20040;-76
2023/06/11 10:07:25;;;;;;;11.43;5.72;;;27.90;99.90;;;;;;5059491;28;20064;-76
2023/06/11 10:09:52;;;;;;;10.40;5.28;;;28.00;99.90;;;;;;5068455;28;20071;-76
2023/06/11 10:12:20;;;;;;;11.00;5.32;;;28.00;99.90;;;;;;5053283;28;20044;-76
2023/06/11 10:14:53;;;;;;;11.95;5.20;;;28.00;99.90;;;;;;5054851;28;20083;-76
2023/06/11 10:17:21;;;;;;;11.98;5.20;;;28.10;99.90;;;;;;5068006;28;20402;-76
2023/06/11 10:19:49;;;;;;;11.30;5.07;;;28.10;99.90;;;;;;5060087;28;20033;-75
2023/06/11 10:22:21;;;;;;;12.38;5.13;;;28.20;99.90;;;;;;5057892;28;20071;-77
2023/06/11 10:24:57;;;;;;;12.07;5.28;;;28.30;99.90;;;;;;5039080;28;20331;-77
2023/06/11 10:27:37;;;;;;;12.57;5.50;;;27.70;99.90;;;;;;5055368;28;20052;-77
2023/06/11 10:30:07;;;;;;;10.20;5.05;;;27.90;99.90;;;;;;5054144;28;20116;-77
2023/06/11 10:32:34;;;;;;;12.82;5.38;;;28.20;99.90;;;;;;5059696;28;20079;-77
2023/06/11 10:35:06;;;;;;;10.48;5.07;;;28.30;99.90;;;;;;5057732;28;20079;-77
2023/06/11 10:37:42;;;;;;;9.95;5.10;;;28.40;99.90;;;;;;5059408;28;20071;-77
2023/06/11 10:40:09;;;;;;;10.18;5.03;;;28.50;99.90;;;;;;5051544;28;20106;-77
2023/06/11 10:42:39;;;;;;;11.63;5.22;;;28.50;99.90;;;;;;5056990;28;20575;-76
2023/06/11 10:45:12;;;;;;;10.82;5.00;;;28.60;99.90;;;;;;5054965;28;20613;-77
2023/06/11 10:47:47;;;;;;;9.73;4.75;;;28.70;99.90;;;;;;5056539;28;20528;-77
2023/06/11 10:50:24;;;;;;;10.20;4.72;;;28.70;99.90;;;;;;5057198;28;20087;-77
2023/06/11 10:53:06;;;;;;;10.45;4.60;;;28.70;99.90;;;;;;5053299;28;20072;-77
2023/06/11 10:55:34;;;;;;;10.02;5.10;;;28.80;99.90;;;;;;5061883;28;20073;-76
2023/06/11 10:58:00;;;;;;;10.23;4.55;;;28.80;99.90;;;;;;5052285;28;20053;-77
2023/06/11 11:00:32;;;;;;;9.48;4.70;;;28.90;99.90;;;;;;5047626;28;20052;-77
2023/06/11 11:02:59;;;;;;;9.90;4.60;;;28.90;99.90;;;;;;5049227;28;20040;-77
2023/06/11 11:05:28;;;;;;;9.30;4.68;;;28.90;99.90;;;;;;5066253;28;20084;-78
2023/06/11 11:07:54;;;;;;;10.80;4.43;;;27.60;99.90;;;;;;5052507;28;20056;-77
2023/06/11 11:10:24;;;;;;;8.85;4.50;;;29.00;99.90;;;;;;5047491;28;20045;-76
2023/06/11 11:12:50;;;;;;;8.77;4.30;;;29.20;99.90;;;;;;5047808;28;20106;-76
2023/06/11 11:15:16;;;;;;;8.90;4.32;;;29.20;99.90;;;;;;5059854;28;20048;-77
2023/06/11 11:17:43;;;;;;;12.65;5.22;;;29.20;99.90;;;;;;5041955;28;20116;-77
2023/06/11 11:20:10;;;;;;;9.02;4.45;;;29.50;99.90;;;;;;5048947;28;20493;-77
2023/06/11 11:22:37;;;;;;;9.82;4.50;;;29.20;99.90;;;;;;5049140;28;20053;-77
2023/06/11 11:25:05;;;;;;;8.65;4.22;;;29.30;99.90;;;;;;5037082;28;20131;-77
2023/06/11 11:27:31;;;;;;;9.00;4.25;;;29.30;99.90;;;;;;5064458;28;20051;-77
2023/06/11 11:30:00;;;;;;;10.18;4.18;;;29.40;99.90;;;;;;5054539;28;20132;-77
2023/06/11 11:32:33;;;;;;;10.13;4.10;;;29.40;99.90;;;;;;5054104;28;20049;-77
2023/06/11 11:35:00;;;;;;;10.40;4.45;;;29.50;99.90;;;;;;5052958;28;20286;-77
2023/06/11 11:37:30;;;;;;;8.95;4.22;;;29.40;99.90;;;;;;5053898;28;20045;-77
2023/06/11 11:39:59;;;;;;;9.30;4.35;;;29.40;99.90;;;;;;5053743;28;20044;-77
2023/06/11 11:42:25;;;;;;;9.15;4.30;;;29.40;99.90;;;;;;5049410;28;20138;-77
2023/06/11 11:44:54;;;;;;;8.70;4.57;;;30.60;99.90;;;;;;5052030;28;20053;-77
2023/06/11 11:47:21;;;;;;;11.27;4.20;;;29.50;99.70;;;;;;5066813;28;20052;-77
2023/06/11 11:49:56;;;;;;;10.57;4.43;;;29.40;99.60;;;;;;5071002;28;20055;-77
2023/06/11 11:52:23;;;;;;;8.77;4.35;;;29.50;99.00;;;;;;5062949;28;20110;-77
2023/06/11 11:54:49;;;;;;;9.38;4.78;;;29.50;99.30;;;;;;5058006;28;20048;-77
2023/06/11 11:57:21;;;;;;;10.70;4.50;;;29.70;99.70;;;;;;5070134;28;20048;-77
2023/06/11 11:59:53;;;;;;;11.13;4.55;;;29.70;99.90;;;;;;5060260;28;20033;-77
2023/06/11 12:02:25;;;;;;;11.33;4.80;;;29.90;99.90;;;;;;5041713;28;20032;-77
2023/06/11 12:04:51;;;;;;;9.27;4.93;;;30.00;99.50;;;;;;5058534;28;20081;-77
2023/06/11 12:07:20;;;;;;;10.55;4.70;;;29.90;99.30;;;;;;5029496;28;20044;-77
2023/06/11 12:09:46;;;;;;;9.88;4.88;;;30.00;99.00;;;;;;5050663;28;20525;-77
2023/06/11 12:12:11;;;;;;;9.35;4.68;;;30.00;99.20;;;;;;5052610;28;20040;-77
2023/06/11 12:14:37;;;;;;;9.65;4.72;;;30.10;98.20;;;;;;5050286;28;20055;-77
2023/06/11 12:17:07;;;;;;;9.70;4.75;;;30.10;98.10;;;;;;5053800;28;20041;-77
2023/06/11 12:19:33;;;;;;;12.88;4.95;;;30.20;97.70;;;;;;5069613;28;20119;-76
2023/06/11 12:21:59;;;;;;;9.75;4.40;;;30.30;98.10;;;;;;5072224;28;20048;-77
2023/06/11 12:24:25;;;;;;;8.85;4.38;;;30.30;97.60;;;;;;5052638;28;20033;-77
2023/06/11 12:26:51;;;;;;;8.73;4.70;;;30.30;97.40;;;;;;5052121;28;20044;-77
2023/06/11 12:29:17;;;;;;;9.32;4.63;;;30.30;97.00;;;;;;5061047;28;20052;-77
2023/06/11 12:31:46;;;;;;;9.55;4.80;;;30.00;97.00;;;;;;5050453;28;20041;-77
2023/06/11 12:34:15;;;;;;;9.52;4.63;;;29.80;96.70;;;;;;5051049;28;20045;-77
2023/06/11 12:36:43;;;;;;;9.55;4.43;;;29.90;97.00;;;;;;5051838;28;20522;-79
2023/06/11 12:39:10;;;;;;;9.45;4.70;;;30.00;95.80;;;;;;5056399;28;20047;-77